createdAt,value
2023-04-17T00:00:50.540Z,4.88
2023-04-17T00:03:36.200Z,6.05
2023-04-17T00:06:22.136Z,5.22
2023-04-17T00:09:07.770Z,5.35
2023-04-17T00:11:53.425Z,4.75
2023-04-17T00:14:38.843Z,4.30
2023-04-17T00:17:24.350Z,5.05
2023-04-17T00:20:10.901Z,5.18
2023-04-17T00:22:56.561Z,5.00
2023-04-17T00:25:42.242Z,4.88
2023-04-17T00:28:27.702Z,4.75
2023-04-17T00:31:13.530Z,4.35
2023-04-17T00:34:01.668Z,4.80
2023-04-17T00:36:47.353Z,4.53
2023-04-17T00:39:32.784Z,4.30
2023-04-17T00:42:18.383Z,4.22
2023-04-17T00:45:05.621Z,4.65
2023-04-17T00:47:52.423Z,4.85
2023-04-17T00:50:38.619Z,4.40
2023-04-17T00:53:24.005Z,4.20
2023-04-17T00:56:10.024Z,4.18
2023-04-17T00:58:58.079Z,4.82
2023-04-17T01:01:44.172Z,3.75
2023-04-17T01:04:29.560Z,3.90
2023-04-17T01:07:15.537Z,4.72
2023-04-17T01:10:01.367Z,4.50
2023-04-17T01:12:49.310Z,4.57
2023-04-17T01:15:36.121Z,5.07
2023-04-17T01:18:21.832Z,5.20
2023-04-17T01:21:07.177Z,5.03
2023-04-17T01:23:53.174Z,5.78
2023-04-17T01:26:41.608Z,6.10
2023-04-17T01:29:27.267Z,4.63
2023-04-17T01:32:14.957Z,4.85
2023-04-17T01:35:01.067Z,5.10
2023-04-17T01:37:46.642Z,5.07
2023-04-17T01:40:32.149Z,4.20
2023-04-17T01:43:17.577Z,5.10
2023-04-17T01:46:02.838Z,5.05
2023-04-17T01:48:48.122Z,4.50
2023-04-17T01:51:33.516Z,5.43
2023-04-17T01:54:18.886Z,4.50
2023-04-17T01:57:04.508Z,5.75
2023-04-17T01:59:49.818Z,4.82
2023-04-17T02:02:35.289Z,4.18
2023-04-17T02:05:20.971Z,4.70
2023-04-17T02:08:06.455Z,4.70
2023-04-17T02:10:52.183Z,5.30
2023-04-17T02:13:37.529Z,4.10
2023-04-17T02:16:23.090Z,4.43
2023-04-17T02:19:08.206Z,4.38
2023-04-17T02:21:53.660Z,4.25
2023-04-17T02:24:39.136Z,4.70
2023-04-17T02:27:24.575Z,4.13
2023-04-17T02:30:10.540Z,4.93
2023-04-17T02:32:56.567Z,5.13
2023-04-17T02:35:42.255Z,4.07
2023-04-17T02:38:30.193Z,4.00
2023-04-17T02:41:15.703Z,4.15
2023-04-17T02:44:03.102Z,4.22
2023-04-17T02:46:48.396Z,3.90
2023-04-17T02:49:34.193Z,4.15
2023-04-17T02:52:19.552Z,6.22
2023-04-17T02:55:07.018Z,4.88
2023-04-17T02:57:53.223Z,4.40
2023-04-17T03:00:39.335Z,4.65
2023-04-17T03:03:27.081Z,3.85
2023-04-17T03:06:12.458Z,4.63
2023-04-17T03:08:58.039Z,4.55
2023-04-17T03:11:44.012Z,4.65
2023-04-17T03:14:29.553Z,5.03
2023-04-17T03:17:16.746Z,4.60
2023-04-17T03:20:02.416Z,4.85
2023-04-17T03:22:48.045Z,4.85
2023-04-17T03:25:33.829Z,4.50
2023-04-17T03:28:22.069Z,4.15
2023-04-17T03:31:07.879Z,4.72
2023-04-17T03:33:54.399Z,4.13
2023-04-17T03:36:40.689Z,4.05
2023-04-17T03:39:27.164Z,4.28
2023-04-17T03:42:14.827Z,4.38
2023-04-17T03:45:00.480Z,4.00
2023-04-17T03:47:48.062Z,3.92
2023-04-17T03:50:34.195Z,3.83
2023-04-17T03:53:19.739Z,3.70
2023-04-17T03:56:06.802Z,3.65
2023-04-17T03:58:56.578Z,3.33
2023-04-17T04:01:43.825Z,3.50
2023-04-17T04:04:40.088Z,3.05
2023-04-17T04:07:30.229Z,3.20
2023-04-17T04:10:17.057Z,3.42
2023-04-17T04:13:02.959Z,2.60
2023-04-17T04:15:48.375Z,2.85
2023-04-17T04:18:37.277Z,3.45
2023-04-17T04:21:23.998Z,3.40
2023-04-17T04:24:10.377Z,3.60
2023-04-17T04:27:02.511Z,3.17
2023-04-17T04:29:48.973Z,2.55
2023-04-17T04:32:37.751Z,3.10
2023-04-17T04:35:26.083Z,2.60
2023-04-17T04:38:14.120Z,2.90
2023-04-17T04:41:10.119Z,2.63
2023-04-17T04:43:57.065Z,2.80
2023-04-17T04:46:42.947Z,3.33
2023-04-17T04:49:29.408Z,2.92
2023-04-17T04:52:14.730Z,2.53
2023-04-17T04:55:00.929Z,3.55
2023-04-17T04:57:48.813Z,2.88
2023-04-17T05:00:33.999Z,2.88
2023-04-17T05:03:20.633Z,2.85
2023-04-17T05:06:06.366Z,3.63
2023-04-17T05:08:59.427Z,3.30
2023-04-17T05:11:44.713Z,3.65
2023-04-17T05:14:30.091Z,4.25
2023-04-17T05:17:15.862Z,3.90
2023-04-17T05:20:01.750Z,3.78
2023-04-17T05:22:49.725Z,4.05
2023-04-17T05:25:34.897Z,4.05
2023-04-17T05:28:27.271Z,4.22
2023-04-17T05:31:15.879Z,4.15
2023-04-17T05:34:02.060Z,4.38
2023-04-17T05:36:48.055Z,4.88
2023-04-17T05:39:34.433Z,4.47
2023-04-17T05:42:20.923Z,4.15
2023-04-17T05:45:07.295Z,4.95
2023-04-17T05:47:52.697Z,4.95
2023-04-17T05:50:39.475Z,5.65
2023-04-17T05:53:26.231Z,5.18
2023-04-17T05:56:15.566Z,6.00
2023-04-17T05:59:01.892Z,4.85
2023-04-17T06:01:47.646Z,5.50
2023-04-17T06:04:36.757Z,3.97
2023-04-17T06:07:22.254Z,5.15
2023-04-17T06:10:09.078Z,4.63
2023-04-17T06:12:54.975Z,4.75
2023-04-17T06:15:41.281Z,4.20
2023-04-17T06:18:27.503Z,4.20
2023-04-17T06:21:13.067Z,4.25
2023-04-17T06:23:58.555Z,4.38
2023-04-17T06:26:44.310Z,3.85
2023-04-17T06:29:30.474Z,4.13
2023-04-17T06:32:15.968Z,4.03
2023-04-17T06:35:01.438Z,4.55
2023-04-17T06:37:59.883Z,4.07
2023-04-17T06:40:46.785Z,4.07
2023-04-17T06:43:32.499Z,3.65
2023-04-17T06:46:29.313Z,3.95
2023-04-17T06:49:14.853Z,4.45
2023-04-17T06:52:00.791Z,3.92
2023-04-17T06:54:46.543Z,4.55
2023-04-17T06:57:34.112Z,4.30
2023-04-17T07:00:20.293Z,5.32
2023-04-17T07:03:06.379Z,4.65
2023-04-17T07:05:51.809Z,4.82
2023-04-17T07:08:37.217Z,4.93
2023-04-17T07:11:22.627Z,5.10
2023-04-17T07:14:07.884Z,4.60
2023-04-17T07:16:53.367Z,4.60
2023-04-17T07:19:38.744Z,5.07
2023-04-17T07:22:25.996Z,4.82
2023-04-17T07:25:12.884Z,4.38
2023-04-17T07:27:58.081Z,4.80
2023-04-17T07:30:44.524Z,4.57
2023-04-17T07:33:29.680Z,4.57
2023-04-17T07:36:15.882Z,3.53
2023-04-17T07:39:01.582Z,4.63
2023-04-17T07:41:46.922Z,4.20
2023-04-17T07:44:32.917Z,4.55
2023-04-17T07:47:18.520Z,4.82
2023-04-17T07:50:04.666Z,4.40
2023-04-17T07:52:49.927Z,5.53
2023-04-17T07:55:35.790Z,4.25
2023-04-17T07:58:22.246Z,4.85
2023-04-17T08:01:08.405Z,4.43
2023-04-17T08:03:55.796Z,4.88
2023-04-17T08:06:41.877Z,4.80
2023-04-17T08:09:27.528Z,4.63
2023-04-17T08:12:12.926Z,5.63
2023-04-17T08:14:58.270Z,6.13
2023-04-17T08:17:43.612Z,5.70
2023-04-17T08:20:29.336Z,5.80
2023-04-17T08:23:14.856Z,5.55
2023-04-17T08:26:00.400Z,4.35
2023-04-17T08:28:46.328Z,4.50
2023-04-17T08:31:32.283Z,5.32
2023-04-17T08:34:17.697Z,4.80
2023-04-17T08:37:03.418Z,4.15
2023-04-17T08:39:52.582Z,4.93
2023-04-17T08:42:39.754Z,4.78
2023-04-17T08:45:25.405Z,4.97
2023-04-17T08:48:13.502Z,5.22
2023-04-17T08:50:58.919Z,5.07
2023-04-17T08:53:44.449Z,6.07
2023-04-17T08:56:30.029Z,4.72
2023-04-17T08:59:17.201Z,6.70
2023-04-17T09:02:07.675Z,4.05
2023-04-17T09:04:53.258Z,3.30
2023-04-17T09:07:40.903Z,2.92
2023-04-17T09:10:36.073Z,3.35
2023-04-17T09:13:26.164Z,3.13
2023-04-17T09:16:15.818Z,3.20
2023-04-17T09:19:07.986Z,2.92
2023-04-17T09:21:54.741Z,2.67
2023-04-17T09:24:40.540Z,3.38
2023-04-17T09:27:27.927Z,2.40
2023-04-17T09:30:13.698Z,2.50
2023-04-17T09:33:06.473Z,2.50
2023-04-17T09:35:52.243Z,1.90
2023-04-17T09:38:38.551Z,2.00
2023-04-17T09:41:39.296Z,1.50
2023-04-17T09:44:30.189Z,1.40
2023-04-17T09:47:17.902Z,1.30
2023-04-17T09:50:04.030Z,1.10
2023-04-17T09:52:54.592Z,1.25
2023-04-17T09:55:41.730Z,1.33
2023-04-17T09:58:27.526Z,1.67
2023-04-17T10:01:13.993Z,2.47
2023-04-17T10:04:00.694Z,1.85
2023-04-17T10:06:46.696Z,1.85
2023-04-17T10:09:32.167Z,2.40
2023-04-17T10:12:19.328Z,2.72
2023-04-17T10:15:08.218Z,2.80
2023-04-17T10:17:56.498Z,3.42
2023-04-17T10:20:44.923Z,2.13
2023-04-17T10:23:33.083Z,2.30
2023-04-17T10:26:25.065Z,1.50
2023-04-17T10:29:12.772Z,1.73
2023-04-17T10:32:11.027Z,1.27
2023-04-17T10:35:16.068Z,1.40
2023-04-17T10:38:06.684Z,1.20
2023-04-17T10:40:52.298Z,1.35
2023-04-17T10:43:41.072Z,1.40
2023-04-17T10:46:26.788Z,1.60
2023-04-17T10:49:14.940Z,1.75
2023-04-17T10:52:00.560Z,1.60
2023-04-17T10:55:22.095Z,1.83
2023-04-17T10:58:13.938Z,1.98
2023-04-17T11:01:03.547Z,2.25
2023-04-17T11:03:49.048Z,2.13
2023-04-17T11:06:40.167Z,2.13
2023-04-17T11:09:28.265Z,2.05
2023-04-17T11:12:13.827Z,1.77
2023-04-17T11:15:03.391Z,1.50
2023-04-17T11:17:49.123Z,1.80
2023-04-17T11:20:37.692Z,1.33
2023-04-17T11:23:23.008Z,2.00
2023-04-17T11:26:08.486Z,1.65
2023-04-17T11:28:53.832Z,1.48
2023-04-17T11:31:40.240Z,1.63
2023-04-17T11:34:29.343Z,2.35
2023-04-17T11:37:15.249Z,1.30
2023-04-17T11:40:10.887Z,1.27
2023-04-17T11:42:56.473Z,1.63
2023-04-17T11:45:43.849Z,1.13
2023-04-17T11:48:30.416Z,1.10
2023-04-17T11:51:18.787Z,0.95
2023-04-17T11:54:04.401Z,1.33
2023-04-17T11:57:12.899Z,1.05
2023-04-17T11:59:58.512Z,0.88
2023-04-17T12:02:43.954Z,1.70
2023-04-17T12:05:30.894Z,2.00
2023-04-17T12:08:16.578Z,1.40
2023-04-17T12:11:01.970Z,1.90
2023-04-17T12:13:47.414Z,1.15
2023-04-17T12:16:32.955Z,1.60
2023-04-17T12:19:20.010Z,1.75
2023-04-17T12:22:05.582Z,1.30
2023-04-17T12:24:51.356Z,2.13
2023-04-17T12:27:37.122Z,1.30
2023-04-17T12:30:24.377Z,1.88
2023-04-17T12:33:10.086Z,2.05
2023-04-17T12:35:55.921Z,1.30
2023-04-17T12:38:43.144Z,2.10
2023-04-17T12:41:29.362Z,1.73
2023-04-17T12:44:15.279Z,1.60
2023-04-17T12:47:00.896Z,2.22
2023-04-17T12:49:46.374Z,1.33
2023-04-17T12:52:32.417Z,2.10
2023-04-17T12:55:17.831Z,1.73
2023-04-17T12:58:03.463Z,1.58
2023-04-17T13:00:49.252Z,1.30
2023-04-17T13:03:35.172Z,1.75
2023-04-17T13:06:21.692Z,1.60
2023-04-17T13:09:07.380Z,1.80
2023-04-17T13:11:52.932Z,1.73
2023-04-17T13:14:38.396Z,1.80
2023-04-17T13:17:25.205Z,1.33
2023-04-17T13:20:11.780Z,1.70
2023-04-17T13:22:58.967Z,1.83
2023-04-17T13:25:44.824Z,1.40
2023-04-17T13:28:30.235Z,1.55
2023-04-17T13:31:15.719Z,1.65
2023-04-17T13:34:02.182Z,1.50
2023-04-17T13:36:47.912Z,1.52
2023-04-17T13:39:33.322Z,1.80
2023-04-17T13:42:19.451Z,1.83
2023-04-17T13:45:05.517Z,2.97
2023-04-17T13:47:50.938Z,1.55
2023-04-17T13:50:36.271Z,1.77
2023-04-17T13:53:21.717Z,1.63
2023-04-17T13:56:07.055Z,2.38
2023-04-17T13:58:52.630Z,2.28
2023-04-17T14:01:38.243Z,2.40
2023-04-17T14:04:23.867Z,1.60
2023-04-17T14:07:09.516Z,1.55
2023-04-17T14:09:55.023Z,1.40
2023-04-17T14:12:40.570Z,1.25
2023-04-17T14:15:26.322Z,1.90
2023-04-17T14:18:12.376Z,1.60
2023-04-17T14:20:57.996Z,1.48
2023-04-17T14:23:44.717Z,1.50
2023-04-17T14:26:30.595Z,1.08
2023-04-17T14:29:16.240Z,1.40
2023-04-17T14:32:01.516Z,1.10
2023-04-17T14:34:46.923Z,1.40
2023-04-17T14:37:34.054Z,1.17
2023-04-17T14:40:19.630Z,1.35
2023-04-17T14:43:05.357Z,2.17
2023-04-17T14:45:51.569Z,1.65
2023-04-17T14:48:48.036Z,1.73
2023-04-17T14:51:40.772Z,1.55
2023-04-17T14:54:26.569Z,1.05
2023-04-17T14:57:12.183Z,1.35
2023-04-17T14:59:57.530Z,1.48
2023-04-17T15:02:43.358Z,1.50
2023-04-17T15:05:29.056Z,1.10
2023-04-17T15:08:14.483Z,1.55
2023-04-17T15:10:59.871Z,1.40
2023-04-17T15:13:45.224Z,1.67
2023-04-17T15:16:30.861Z,1.75
2023-04-17T15:19:16.383Z,2.22
2023-04-17T15:22:01.875Z,2.15
2023-04-17T15:24:47.296Z,1.88
2023-04-17T15:27:32.671Z,2.30
2023-04-17T15:30:18.157Z,2.15
2023-04-17T15:33:04.136Z,1.50
2023-04-17T15:35:55.511Z,1.92
2023-04-17T15:38:41.123Z,1.90
2023-04-17T15:41:26.706Z,1.70
2023-04-17T15:44:12.120Z,1.52
2023-04-17T15:46:57.478Z,1.33
2023-04-17T15:49:43.417Z,1.50
2023-04-17T15:52:28.983Z,1.65
2023-04-17T15:55:15.846Z,1.77
2023-04-17T15:58:01.188Z,2.00
2023-04-17T16:00:46.718Z,2.05
2023-04-17T16:03:32.213Z,2.10
2023-04-17T16:06:18.201Z,3.05
2023-04-17T16:09:03.818Z,1.98
2023-04-17T16:11:49.499Z,2.72
2023-04-17T16:14:36.243Z,2.38
2023-04-17T16:17:21.700Z,1.92
2023-04-17T16:20:07.597Z,1.95
2023-04-17T16:22:53.159Z,2.60
2023-04-17T16:25:38.479Z,2.60
2023-04-17T16:28:24.539Z,3.08
2023-04-17T16:31:11.227Z,7.22
2023-04-17T16:33:56.360Z,4.50
2023-04-17T16:36:45.269Z,3.47
2023-04-17T16:39:30.996Z,3.40
2023-04-17T16:42:16.530Z,2.55
2023-04-17T16:45:02.119Z,3.20
2023-04-17T16:47:47.419Z,2.50
2023-04-17T16:50:32.815Z,2.38
2023-04-17T16:53:18.431Z,2.63
2023-04-17T16:56:04.075Z,2.90
2023-04-17T16:58:49.496Z,2.80
2023-04-17T17:01:34.963Z,2.92
2023-04-17T17:04:20.896Z,2.67
2023-04-17T17:07:06.317Z,2.92
2023-04-17T17:09:51.824Z,2.47
2023-04-17T17:12:37.039Z,2.65
2023-04-17T17:15:23.098Z,2.38
2023-04-17T17:18:08.897Z,2.70
2023-04-17T17:20:56.121Z,3.30
2023-04-17T17:23:41.854Z,2.70
2023-04-17T17:26:27.522Z,2.15
2023-04-17T17:29:13.291Z,2.35
2023-04-17T17:31:58.957Z,1.95
2023-04-17T17:34:44.675Z,2.10
2023-04-17T17:37:30.628Z,4.28
2023-04-17T17:40:16.242Z,2.95
2023-04-17T17:43:01.840Z,2.55
2023-04-17T17:45:47.394Z,2.28
2023-04-17T17:48:34.667Z,2.70
2023-04-17T17:51:22.179Z,2.55
2023-04-17T17:54:08.049Z,1.45
2023-04-17T17:56:53.320Z,1.75
2023-04-17T17:59:38.814Z,2.08
2023-04-17T18:02:24.842Z,1.92
2023-04-17T18:05:10.656Z,2.03
2023-04-17T18:07:56.355Z,1.92
2023-04-17T18:10:42.081Z,2.22
2023-04-17T18:13:27.571Z,3.40
2023-04-17T18:16:13.086Z,2.25
2023-04-17T18:19:02.024Z,2.50
2023-04-17T18:21:47.862Z,2.15
2023-04-17T18:24:33.400Z,2.30
2023-04-17T18:27:20.096Z,1.88
2023-04-17T18:30:10.115Z,1.90
2023-04-17T18:32:55.540Z,2.38
2023-04-17T18:35:40.795Z,2.35
2023-04-17T18:38:26.163Z,2.58
2023-04-17T18:41:11.614Z,2.40
2023-04-17T18:43:56.861Z,2.58
2023-04-17T18:46:42.214Z,2.20
2023-04-17T18:49:27.708Z,1.88
2023-04-17T18:52:13.406Z,3.40
2023-04-17T18:54:58.706Z,2.53
2023-04-17T18:57:44.082Z,2.10
2023-04-17T19:00:29.548Z,2.22
2023-04-17T19:03:15.139Z,2.92
2023-04-17T19:06:01.095Z,2.22
2023-04-17T19:08:46.306Z,2.65
2023-04-17T19:11:32.571Z,2.92
2023-04-17T19:14:17.989Z,2.72
2023-04-17T19:17:03.209Z,3.47
2023-04-17T19:19:48.782Z,3.33
2023-04-17T19:22:34.219Z,3.40
2023-04-17T19:25:19.531Z,3.15
2023-04-17T19:28:05.807Z,2.70
2023-04-17T19:30:51.207Z,3.42
2023-04-17T19:33:37.118Z,3.45
2023-04-17T19:36:22.876Z,2.70
2023-04-17T19:39:08.427Z,3.03
2023-04-17T19:41:53.924Z,2.38
2023-04-17T19:44:39.278Z,2.90
2023-04-17T19:47:24.622Z,3.38
2023-04-17T19:50:10.776Z,2.95
2023-04-17T19:52:58.048Z,2.50
2023-04-17T19:55:43.659Z,2.67
2023-04-17T19:58:29.546Z,2.55
2023-04-17T20:01:15.387Z,2.63
2023-04-17T20:04:01.166Z,2.70
2023-04-17T20:06:47.053Z,2.85
2023-04-17T20:09:32.730Z,2.35
2023-04-17T20:12:19.532Z,3.55
2023-04-17T20:15:05.110Z,2.45
2023-04-17T20:17:51.253Z,2.65
2023-04-17T20:20:37.574Z,3.22
2023-04-17T20:23:23.261Z,2.40
2023-04-17T20:26:08.796Z,3.00
2023-04-17T20:28:54.929Z,3.22
2023-04-17T20:31:40.710Z,3.42
2023-04-17T20:34:26.834Z,3.53
2023-04-17T20:37:12.307Z,4.13
2023-04-17T20:39:57.597Z,3.60
2023-04-17T20:42:43.982Z,4.43
2023-04-17T20:45:29.824Z,4.18
2023-04-17T20:48:15.514Z,4.07
2023-04-17T20:51:05.999Z,4.55
2023-04-17T20:53:52.299Z,5.57
2023-04-17T20:56:38.112Z,4.25
2023-04-17T20:59:23.564Z,5.20
2023-04-17T21:02:09.245Z,5.80
2023-04-17T21:04:54.924Z,5.82
2023-04-17T21:07:40.185Z,6.43
2023-04-17T21:10:25.611Z,7.38
2023-04-17T21:13:11.027Z,10.68
2023-04-17T21:15:56.553Z,8.35
2023-04-17T21:18:42.220Z,8.13
2023-04-17T21:21:27.547Z,8.02
2023-04-17T21:24:13.161Z,8.55
2023-04-17T21:26:59.689Z,6.93
2023-04-17T21:29:45.295Z,6.00
2023-04-17T21:32:30.991Z,5.68
2023-04-17T21:35:16.226Z,6.18
2023-04-17T21:38:01.520Z,5.20
2023-04-17T21:40:51.307Z,5.32
2023-04-17T21:43:37.133Z,6.28
2023-04-17T21:46:22.689Z,5.80
2023-04-17T21:49:07.862Z,5.15
2023-04-17T21:51:53.220Z,5.35
2023-04-17T21:54:38.948Z,5.40
2023-04-17T21:57:24.538Z,4.55
2023-04-17T22:00:14.523Z,4.53
2023-04-17T22:03:00.763Z,5.20
2023-04-17T22:05:46.478Z,5.15
2023-04-17T22:08:31.959Z,5.60
2023-04-17T22:11:17.258Z,5.13
2023-04-17T22:14:02.636Z,5.40
2023-04-17T22:16:48.356Z,6.10
2023-04-17T22:19:33.643Z,6.03
2023-04-17T22:22:19.067Z,5.63
2023-04-17T22:25:04.764Z,5.07
2023-04-17T22:27:50.069Z,5.40
2023-04-17T22:30:35.440Z,5.22
2023-04-17T22:33:20.751Z,5.85
2023-04-17T22:36:06.223Z,6.05
2023-04-17T22:38:51.534Z,7.45
2023-04-17T22:41:36.925Z,7.35
2023-04-17T22:44:22.549Z,7.13
2023-04-17T22:47:07.991Z,7.35
2023-04-17T22:49:53.925Z,8.35
2023-04-17T22:52:39.572Z,8.55
2023-04-17T22:55:25.230Z,7.25
2023-04-17T22:58:10.745Z,7.93
2023-04-17T23:00:56.480Z,8.95
2023-04-17T23:03:42.288Z,8.13
2023-04-17T23:06:28.163Z,8.18
2023-04-17T23:09:13.945Z,8.45
2023-04-17T23:11:59.715Z,9.25
2023-04-17T23:14:46.154Z,8.77
2023-04-17T23:17:31.505Z,9.35
2023-04-17T23:20:16.777Z,10.75
2023-04-17T23:23:03.956Z,10.02
2023-04-17T23:25:49.371Z,11.05
2023-04-17T23:28:34.556Z,10.30
2023-04-17T23:31:19.995Z,11.55
2023-04-17T23:34:05.500Z,11.43
2023-04-17T23:36:51.200Z,11.13
2023-04-17T23:39:36.883Z,11.13
2023-04-17T23:42:22.377Z,10.85
2023-04-17T23:45:08.577Z,11.38
2023-04-17T23:47:54.117Z,11.00
2023-04-17T23:50:39.374Z,11.93
2023-04-17T23:53:24.808Z,12.68
2023-04-17T23:56:10.226Z,12.80
2023-04-17T23:58:56.573Z,13.07
